sensor_id;sensor_type;location;lat;lon;timestamp;P1;durP1;ratioP1;P2;durP2;ratioP2
7080;SDS011;3582;51.506;11.948;2023-11-19T00:00:38;6.47;;;5.80;;
7080;SDS011;3582;51.506;11.948;2023-11-19T00:03:03;5.80;;;5.07;;
7080;SDS011;3582;51.506;11.948;2023-11-19T00:05:30;7.38;;;5.97;;
7080;SDS011;3582;51.506;11.948;2023-11-19T00:07:56;4.27;;;3.77;;
7080;SDS011;3582;51.506;11.948;2023-11-19T00:10:22;5.77;;;5.00;;
7080;SDS011;3582;51.506;11.948;2023-11-19T00:12:49;5.38;;;4.85;;
7080;SDS011;3582;51.506;11.948;2023-11-19T00:15:15;3.78;;;3.47;;
7080;SDS011;3582;51.506;11.948;2023-11-19T00:17:44;6.55;;;4.50;;
7080;SDS011;3582;51.506;11.948;2023-11-19T00:20:17;4.13;;;3.72;;
7080;SDS011;3582;51.506;11.948;2023-11-19T00:22:43;4.25;;;3.47;;
7080;SDS011;3582;51.506;11.948;2023-11-19T00:25:09;3.88;;;3.58;;
7080;SDS011;3582;51.506;11.948;2023-11-19T00:27:35;4.38;;;3.33;;
7080;SDS011;3582;51.506;11.948;2023-11-19T00:30:02;3.88;;;3.58;;
7080;SDS011;3582;51.506;11.948;2023-11-19T00:32:30;4.20;;;3.13;;
7080;SDS011;3582;51.506;11.948;2023-11-19T00:34:56;3.17;;;2.97;;
7080;SDS011;3582;51.506;11.948;2023-11-19T00:37:22;2.90;;;2.70;;
7080;SDS011;3582;51.506;11.948;2023-11-19T00:39:48;3.63;;;3.33;;
7080;SDS011;3582;51.506;11.948;2023-11-19T00:42:13;5.27;;;3.70;;
7080;SDS011;3582;51.506;11.948;2023-11-19T00:44:39;4.23;;;3.93;;
7080;SDS011;3582;51.506;11.948;2023-11-19T00:47:06;3.20;;;2.90;;
7080;SDS011;3582;51.506;11.948;2023-11-19T00:49:32;4.07;;;3.77;;
7080;SDS011;3582;51.506;11.948;2023-11-19T00:51:59;3.30;;;3.00;;
7080;SDS011;3582;51.506;11.948;2023-11-19T00:54:25;3.80;;;3.50;;
7080;SDS011;3582;51.506;11.948;2023-11-19T00:56:54;3.70;;;3.40;;
7080;SDS011;3582;51.506;11.948;2023-11-19T00:59:20;3.70;;;3.40;;
7080;SDS011;3582;51.506;11.948;2023-11-19T01:01:46;3.35;;;3.05;;
7080;SDS011;3582;51.506;11.948;2023-11-19T01:04:16;3.28;;;3.08;;
7080;SDS011;3582;51.506;11.948;2023-11-19T01:06:42;4.45;;;4.03;;
7080;SDS011;3582;51.506;11.948;2023-11-19T01:09:08;5.85;;;4.65;;
7080;SDS011;3582;51.506;11.948;2023-11-19T01:11:34;4.72;;;4.28;;
7080;SDS011;3582;51.506;11.948;2023-11-19T01:14:00;5.18;;;4.60;;
7080;SDS011;3582;51.506;11.948;2023-11-19T01:16:27;4.55;;;4.15;;
7080;SDS011;3582;51.506;11.948;2023-11-19T01:18:53;5.32;;;4.82;;
7080;SDS011;3582;51.506;11.948;2023-11-19T01:21:19;5.57;;;3.65;;
7080;SDS011;3582;51.506;11.948;2023-11-19T01:23:46;7.03;;;4.35;;
7080;SDS011;3582;51.506;11.948;2023-11-19T01:26:13;5.90;;;4.53;;
7080;SDS011;3582;51.506;11.948;2023-11-19T01:28:39;4.82;;;4.32;;
7080;SDS011;3582;51.506;11.948;2023-11-19T01:31:10;5.18;;;4.40;;
7080;SDS011;3582;51.506;11.948;2023-11-19T01:33:36;4.50;;;4.10;;
7080;SDS011;3582;51.506;11.948;2023-11-19T01:36:02;4.65;;;4.25;;
7080;SDS011;3582;51.506;11.948;2023-11-19T01:38:29;4.07;;;3.67;;
7080;SDS011;3582;51.506;11.948;2023-11-19T01:40:59;5.80;;;4.88;;
7080;SDS011;3582;51.506;11.948;2023-11-19T01:43:37;5.40;;;4.15;;
7080;SDS011;3582;51.506;11.948;2023-11-19T01:46:06;5.65;;;5.15;;
7080;SDS011;3582;51.506;11.948;2023-11-19T01:48:34;4.68;;;4.28;;
7080;SDS011;3582;51.506;11.948;2023-11-19T01:51:01;5.65;;;4.97;;
7080;SDS011;3582;51.506;11.948;2023-11-19T01:53:27;3.57;;;3.33;;
7080;SDS011;3582;51.506;11.948;2023-11-19T01:55:54;5.38;;;4.88;;
7080;SDS011;3582;51.506;11.948;2023-11-19T01:58:20;4.38;;;3.97;;
7080;SDS011;3582;51.506;11.948;2023-11-19T02:00:46;4.90;;;4.60;;
7080;SDS011;3582;51.506;11.948;2023-11-19T02:03:14;3.17;;;2.92;;
7080;SDS011;3582;51.506;11.948;2023-11-19T02:05:40;5.95;;;4.05;;
7080;SDS011;3582;51.506;11.948;2023-11-19T02:08:06;7.13;;;4.00;;
7080;SDS011;3582;51.506;11.948;2023-11-19T02:10:33;3.83;;;3.53;;
7080;SDS011;3582;51.506;11.948;2023-11-19T02:12:59;4.10;;;3.70;;
7080;SDS011;3582;51.506;11.948;2023-11-19T02:15:25;4.22;;;3.60;;
7080;SDS011;3582;51.506;11.948;2023-11-19T02:17:51;4.07;;;3.70;;
7080;SDS011;3582;51.506;11.948;2023-11-19T02:20:17;6.40;;;4.30;;
7080;SDS011;3582;51.506;11.948;2023-11-19T02:22:45;5.82;;;4.00;;
7080;SDS011;3582;51.506;11.948;2023-11-19T02:25:12;5.55;;;4.28;;
7080;SDS011;3582;51.506;11.948;2023-11-19T02:27:57;4.68;;;3.65;;
7080;SDS011;3582;51.506;11.948;2023-11-19T02:30:24;3.72;;;3.53;;
7080;SDS011;3582;51.506;11.948;2023-11-19T02:32:57;3.25;;;2.95;;
7080;SDS011;3582;51.506;11.948;2023-11-19T02:35:27;3.90;;;3.60;;
7080;SDS011;3582;51.506;11.948;2023-11-19T02:37:55;4.68;;;3.00;;
7080;SDS011;3582;51.506;11.948;2023-11-19T02:40:21;2.75;;;2.55;;
7080;SDS011;3582;51.506;11.948;2023-11-19T02:42:49;3.47;;;2.83;;
7080;SDS011;3582;51.506;11.948;2023-11-19T02:45:15;4.53;;;3.67;;
7080;SDS011;3582;51.506;11.948;2023-11-19T02:47:41;2.85;;;2.65;;
7080;SDS011;3582;51.506;11.948;2023-11-19T02:50:08;3.47;;;3.17;;
7080;SDS011;3582;51.506;11.948;2023-11-19T02:52:41;3.40;;;2.90;;
7080;SDS011;3582;51.506;11.948;2023-11-19T02:55:07;3.55;;;3.22;;
7080;SDS011;3582;51.506;11.948;2023-11-19T02:57:40;3.22;;;2.97;;
7080;SDS011;3582;51.506;11.948;2023-11-19T03:00:16;3.05;;;2.78;;
7080;SDS011;3582;51.506;11.948;2023-11-19T03:02:42;2.83;;;2.63;;
7080;SDS011;3582;51.506;11.948;2023-11-19T03:05:12;3.78;;;3.05;;
7080;SDS011;3582;51.506;11.948;2023-11-19T03:07:40;2.90;;;2.70;;
7080;SDS011;3582;51.506;11.948;2023-11-19T03:10:07;2.17;;;2.08;;
7080;SDS011;3582;51.506;11.948;2023-11-19T03:12:34;3.58;;;2.97;;
7080;SDS011;3582;51.506;11.948;2023-11-19T03:15:00;3.08;;;2.50;;
7080;SDS011;3582;51.506;11.948;2023-11-19T03:17:26;1.95;;;1.85;;
7080;SDS011;3582;51.506;11.948;2023-11-19T03:19:52;2.50;;;2.25;;
7080;SDS011;3582;51.506;11.948;2023-11-19T03:22:18;2.50;;;2.27;;
7080;SDS011;3582;51.506;11.948;2023-11-19T03:24:45;2.70;;;2.50;;
7080;SDS011;3582;51.506;11.948;2023-11-19T03:27:11;2.88;;;2.58;;
7080;SDS011;3582;51.506;11.948;2023-11-19T03:29:37;2.00;;;1.90;;
7080;SDS011;3582;51.506;11.948;2023-11-19T03:32:04;1.80;;;1.70;;
7080;SDS011;3582;51.506;11.948;2023-11-19T03:34:30;1.90;;;1.80;;
7080;SDS011;3582;51.506;11.948;2023-11-19T03:36:56;2.17;;;2.00;;
7080;SDS011;3582;51.506;11.948;2023-11-19T03:39:22;1.83;;;1.73;;
7080;SDS011;3582;51.506;11.948;2023-11-19T03:41:50;3.65;;;2.25;;
7080;SDS011;3582;51.506;11.948;2023-11-19T03:44:16;1.60;;;1.50;;
7080;SDS011;3582;51.506;11.948;2023-11-19T03:46:43;1.55;;;1.45;;
7080;SDS011;3582;51.506;11.948;2023-11-19T03:49:08;1.30;;;1.20;;
7080;SDS011;3582;51.506;11.948;2023-11-19T03:51:35;1.90;;;1.80;;
7080;SDS011;3582;51.506;11.948;2023-11-19T03:54:00;1.50;;;1.40;;
7080;SDS011;3582;51.506;11.948;2023-11-19T03:56:27;1.60;;;1.50;;
7080;SDS011;3582;51.506;11.948;2023-11-19T03:58:53;1.45;;;1.35;;
7080;SDS011;3582;51.506;11.948;2023-11-19T04:01:19;1.35;;;1.25;;
7080;SDS011;3582;51.506;11.948;2023-11-19T04:03:45;1.67;;;0.97;;
7080;SDS011;3582;51.506;11.948;2023-11-19T04:06:11;0.93;;;0.80;;
7080;SDS011;3582;51.506;11.948;2023-11-19T04:08:37;3.13;;;1.53;;
7080;SDS011;3582;51.506;11.948;2023-11-19T04:11:03;1.60;;;0.90;;
7080;SDS011;3582;51.506;11.948;2023-11-19T04:13:30;3.53;;;1.23;;
7080;SDS011;3582;51.506;11.948;2023-11-19T04:15:56;1.10;;;1.00;;
7080;SDS011;3582;51.506;11.948;2023-11-19T04:18:22;1.67;;;1.20;;
7080;SDS011;3582;51.506;11.948;2023-11-19T04:20:48;1.58;;;1.02;;
7080;SDS011;3582;51.506;11.948;2023-11-19T04:23:15;1.25;;;0.85;;
7080;SDS011;3582;51.506;11.948;2023-11-19T04:25:41;6.33;;;1.13;;
7080;SDS011;3582;51.506;11.948;2023-11-19T04:28:07;0.95;;;0.95;;
7080;SDS011;3582;51.506;11.948;2023-11-19T04:30:33;2.17;;;1.08;;
7080;SDS011;3582;51.506;11.948;2023-11-19T04:33:00;1.38;;;1.15;;
7080;SDS011;3582;51.506;11.948;2023-11-19T04:35:26;2.00;;;0.90;;
7080;SDS011;3582;51.506;11.948;2023-11-19T04:37:52;1.27;;;1.17;;
7080;SDS011;3582;51.506;11.948;2023-11-19T04:40:22;1.20;;;1.08;;
7080;SDS011;3582;51.506;11.948;2023-11-19T04:42:48;1.33;;;1.23;;
7080;SDS011;3582;51.506;11.948;2023-11-19T04:45:14;2.40;;;1.20;;
7080;SDS011;3582;51.506;11.948;2023-11-19T04:47:41;0.80;;;0.80;;
7080;SDS011;3582;51.506;11.948;2023-11-19T04:50:07;1.00;;;0.95;;
7080;SDS011;3582;51.506;11.948;2023-11-19T04:52:37;1.50;;;1.05;;
7080;SDS011;3582;51.506;11.948;2023-11-19T04:55:04;1.75;;;1.50;;
7080;SDS011;3582;51.506;11.948;2023-11-19T04:57:30;1.20;;;1.10;;
7080;SDS011;3582;51.506;11.948;2023-11-19T04:59:57;0.90;;;0.90;;
7080;SDS011;3582;51.506;11.948;2023-11-19T05:02:23;0.90;;;0.90;;
7080;SDS011;3582;51.506;11.948;2023-11-19T05:04:49;1.27;;;1.17;;
7080;SDS011;3582;51.506;11.948;2023-11-19T05:07:16;1.02;;;0.80;;
7080;SDS011;3582;51.506;11.948;2023-11-19T05:09:41;1.20;;;1.10;;
7080;SDS011;3582;51.506;11.948;2023-11-19T05:12:08;1.70;;;1.20;;
7080;SDS011;3582;51.506;11.948;2023-11-19T05:14:37;1.00;;;0.85;;
7080;SDS011;3582;51.506;11.948;2023-11-19T05:17:03;2.45;;;0.80;;
7080;SDS011;3582;51.506;11.948;2023-11-19T05:19:29;1.10;;;1.00;;
7080;SDS011;3582;51.506;11.948;2023-11-19T05:21:55;0.90;;;0.90;;
7080;SDS011;3582;51.506;11.948;2023-11-19T05:24:21;0.80;;;0.80;;
7080;SDS011;3582;51.506;11.948;2023-11-19T05:26:47;3.50;;;1.33;;
7080;SDS011;3582;51.506;11.948;2023-11-19T05:29:15;0.75;;;0.73;;
7080;SDS011;3582;51.506;11.948;2023-11-19T05:31:41;0.80;;;0.80;;
7080;SDS011;3582;51.506;11.948;2023-11-19T05:34:07;1.27;;;1.00;;
7080;SDS011;3582;51.506;11.948;2023-11-19T05:36:33;0.67;;;0.67;;
7080;SDS011;3582;51.506;11.948;2023-11-19T05:38:59;0.60;;;0.60;;
7080;SDS011;3582;51.506;11.948;2023-11-19T05:41:25;0.87;;;0.87;;
7080;SDS011;3582;51.506;11.948;2023-11-19T05:43:50;0.87;;;0.87;;
7080;SDS011;3582;51.506;11.948;2023-11-19T05:46:17;0.90;;;0.90;;
7080;SDS011;3582;51.506;11.948;2023-11-19T05:48:43;0.60;;;0.60;;
7080;SDS011;3582;51.506;11.948;2023-11-19T05:51:10;0.80;;;0.80;;
7080;SDS011;3582;51.506;11.948;2023-11-19T05:53:36;1.53;;;0.50;;
7080;SDS011;3582;51.506;11.948;2023-11-19T05:56:02;0.60;;;0.60;;
7080;SDS011;3582;51.506;11.948;2023-11-19T05:58:29;1.05;;;0.88;;
7080;SDS011;3582;51.506;11.948;2023-11-19T06:00:58;0.73;;;0.70;;
7080;SDS011;3582;51.506;11.948;2023-11-19T06:03:25;3.83;;;0.93;;
7080;SDS011;3582;51.506;11.948;2023-11-19T06:05:52;1.17;;;0.80;;
7080;SDS011;3582;51.506;11.948;2023-11-19T06:08:21;0.70;;;0.70;;
7080;SDS011;3582;51.506;11.948;2023-11-19T06:10:47;0.77;;;0.60;;
7080;SDS011;3582;51.506;11.948;2023-11-19T06:13:15;0.63;;;0.63;;
7080;SDS011;3582;51.506;11.948;2023-11-19T06:15:41;0.63;;;0.50;;
7080;SDS011;3582;51.506;11.948;2023-11-19T06:18:07;0.60;;;0.60;;
7080;SDS011;3582;51.506;11.948;2023-11-19T06:20:34;0.80;;;0.80;;
7080;SDS011;3582;51.506;11.948;2023-11-19T06:23:00;0.60;;;0.60;;
7080;SDS011;3582;51.506;11.948;2023-11-19T06:25:26;0.90;;;0.90;;
7080;SDS011;3582;51.506;11.948;2023-11-19T06:27:53;1.20;;;0.65;;
7080;SDS011;3582;51.506;11.948;2023-11-19T06:30:19;0.70;;;0.70;;
7080;SDS011;3582;51.506;11.948;2023-11-19T06:32:48;1.50;;;1.10;;
7080;SDS011;3582;51.506;11.948;2023-11-19T06:35:14;5.53;;;1.03;;
7080;SDS011;3582;51.506;11.948;2023-11-19T06:37:40;1.08;;;0.98;;
7080;SDS011;3582;51.506;11.948;2023-11-19T06:40:06;0.77;;;0.77;;
7080;SDS011;3582;51.506;11.948;2023-11-19T06:42:34;1.05;;;0.95;;
7080;SDS011;3582;51.506;11.948;2023-11-19T06:45:00;0.60;;;0.60;;
7080;SDS011;3582;51.506;11.948;2023-11-19T06:47:26;0.57;;;0.57;;
7080;SDS011;3582;51.506;11.948;2023-11-19T06:49:53;0.70;;;0.70;;
7080;SDS011;3582;51.506;11.948;2023-11-19T06:52:19;0.80;;;0.80;;
7080;SDS011;3582;51.506;11.948;2023-11-19T06:54:45;0.80;;;0.80;;
7080;SDS011;3582;51.506;11.948;2023-11-19T06:57:11;0.70;;;0.70;;
7080;SDS011;3582;51.506;11.948;2023-11-19T06:59:38;0.90;;;0.90;;
7080;SDS011;3582;51.506;11.948;2023-11-19T07:02:04;0.80;;;0.80;;
7080;SDS011;3582;51.506;11.948;2023-11-19T07:04:30;0.70;;;0.70;;
7080;SDS011;3582;51.506;11.948;2023-11-19T07:06:58;0.77;;;0.77;;
7080;SDS011;3582;51.506;11.948;2023-11-19T07:09:24;1.75;;;1.08;;
7080;SDS011;3582;51.506;11.948;2023-11-19T07:11:50;0.77;;;0.77;;
7080;SDS011;3582;51.506;11.948;2023-11-19T07:14:19;0.80;;;0.80;;
7080;SDS011;3582;51.506;11.948;2023-11-19T07:16:46;0.80;;;0.80;;
7080;SDS011;3582;51.506;11.948;2023-11-19T07:19:12;0.70;;;0.70;;
7080;SDS011;3582;51.506;11.948;2023-11-19T07:21:41;3.33;;;0.90;;
7080;SDS011;3582;51.506;11.948;2023-11-19T07:24:12;3.00;;;0.80;;
7080;SDS011;3582;51.506;11.948;2023-11-19T07:26:41;1.02;;;1.02;;
7080;SDS011;3582;51.506;11.948;2023-11-19T07:29:07;0.98;;;0.90;;
7080;SDS011;3582;51.506;11.948;2023-11-19T07:31:33;1.23;;;1.20;;
7080;SDS011;3582;51.506;11.948;2023-11-19T07:33:59;1.57;;;0.90;;
7080;SDS011;3582;51.506;11.948;2023-11-19T07:36:25;1.23;;;0.87;;
7080;SDS011;3582;51.506;11.948;2023-11-19T07:38:51;1.10;;;0.83;;
7080;SDS011;3582;51.506;11.948;2023-11-19T07:41:18;0.65;;;0.65;;
7080;SDS011;3582;51.506;11.948;2023-11-19T07:43:44;0.60;;;0.60;;
7080;SDS011;3582;51.506;11.948;2023-11-19T07:46:15;5.13;;;1.00;;
7080;SDS011;3582;51.506;11.948;2023-11-19T07:48:41;5.03;;;1.33;;
7080;SDS011;3582;51.506;11.948;2023-11-19T07:51:07;5.60;;;1.03;;
7080;SDS011;3582;51.506;11.948;2023-11-19T07:53:33;1.30;;;0.82;;
7080;SDS011;3582;51.506;11.948;2023-11-19T07:56:00;1.95;;;0.90;;
7080;SDS011;3582;51.506;11.948;2023-11-19T07:58:26;0.70;;;0.70;;
7080;SDS011;3582;51.506;11.948;2023-11-19T08:00:52;1.23;;;0.93;;
7080;SDS011;3582;51.506;11.948;2023-11-19T08:03:18;1.13;;;1.02;;
7080;SDS011;3582;51.506;11.948;2023-11-19T08:05:44;2.30;;;1.20;;
7080;SDS011;3582;51.506;11.948;2023-11-19T08:08:11;0.70;;;0.70;;
7080;SDS011;3582;51.506;11.948;2023-11-19T08:10:37;2.53;;;1.17;;
7080;SDS011;3582;51.506;11.948;2023-11-19T08:13:03;1.00;;;0.95;;
7080;SDS011;3582;51.506;11.948;2023-11-19T08:15:29;1.98;;;1.08;;
7080;SDS011;3582;51.506;11.948;2023-11-19T08:17:55;1.30;;;1.10;;
7080;SDS011;3582;51.506;11.948;2023-11-19T08:20:22;1.60;;;1.50;;
7080;SDS011;3582;51.506;11.948;2023-11-19T08:22:48;1.40;;;1.30;;
7080;SDS011;3582;51.506;11.948;2023-11-19T08:25:14;0.90;;;0.90;;
7080;SDS011;3582;51.506;11.948;2023-11-19T08:27:40;1.20;;;1.10;;
7080;SDS011;3582;51.506;11.948;2023-11-19T08:30:08;0.70;;;0.70;;
7080;SDS011;3582;51.506;11.948;2023-11-19T08:32:34;2.00;;;1.38;;
7080;SDS011;3582;51.506;11.948;2023-11-19T08:35:00;1.90;;;1.23;;
7080;SDS011;3582;51.506;11.948;2023-11-19T08:37:26;1.37;;;1.30;;
7080;SDS011;3582;51.506;11.948;2023-11-19T08:39:53;2.08;;;1.30;;
7080;SDS011;3582;51.506;11.948;2023-11-19T08:42:19;1.80;;;1.13;;
7080;SDS011;3582;51.506;11.948;2023-11-19T08:44:48;1.38;;;1.27;;
7080;SDS011;3582;51.506;11.948;2023-11-19T08:47:15;1.98;;;1.30;;
7080;SDS011;3582;51.506;11.948;2023-11-19T08:49:42;1.13;;;1.10;;
7080;SDS011;3582;51.506;11.948;2023-11-19T08:52:08;1.20;;;1.20;;
7080;SDS011;3582;51.506;11.948;2023-11-19T08:54:35;2.05;;;1.08;;
7080;SDS011;3582;51.506;11.948;2023-11-19T08:57:01;1.02;;;1.02;;
7080;SDS011;3582;51.506;11.948;2023-11-19T08:59:28;2.75;;;1.08;;
7080;SDS011;3582;51.506;11.948;2023-11-19T09:01:54;1.35;;;1.20;;
7080;SDS011;3582;51.506;11.948;2023-11-19T09:04:20;1.80;;;1.50;;
7080;SDS011;3582;51.506;11.948;2023-11-19T09:06:48;3.72;;;1.35;;
7080;SDS011;3582;51.506;11.948;2023-11-19T09:09:14;2.38;;;1.33;;
7080;SDS011;3582;51.506;11.948;2023-11-19T09:11:40;1.50;;;1.40;;
7080;SDS011;3582;51.506;11.948;2023-11-19T09:14:07;1.85;;;1.00;;
7080;SDS011;3582;51.506;11.948;2023-11-19T09:16:33;2.40;;;1.60;;
7080;SDS011;3582;51.506;11.948;2023-11-19T09:18:59;4.10;;;1.80;;
7080;SDS011;3582;51.506;11.948;2023-11-19T09:21:27;4.22;;;1.83;;
7080;SDS011;3582;51.506;11.948;2023-11-19T09:23:54;1.25;;;1.20;;
7080;SDS011;3582;51.506;11.948;2023-11-19T09:26:20;7.33;;;1.30;;
7080;SDS011;3582;51.506;11.948;2023-11-19T09:28:46;1.90;;;1.67;;
7080;SDS011;3582;51.506;11.948;2023-11-19T09:31:13;5.85;;;2.00;;
7080;SDS011;3582;51.506;11.948;2023-11-19T09:33:39;2.35;;;1.75;;
7080;SDS011;3582;51.506;11.948;2023-11-19T09:36:05;6.63;;;1.70;;
7080;SDS011;3582;51.506;11.948;2023-11-19T09:38:31;2.00;;;1.83;;
7080;SDS011;3582;51.506;11.948;2023-11-19T09:41:00;2.07;;;1.27;;
7080;SDS011;3582;51.506;11.948;2023-11-19T09:43:26;2.20;;;1.73;;
7080;SDS011;3582;51.506;11.948;2023-11-19T09:45:53;1.80;;;1.70;;
7080;SDS011;3582;51.506;11.948;2023-11-19T09:48:20;1.00;;;0.90;;
7080;SDS011;3582;51.506;11.948;2023-11-19T09:50:47;2.33;;;2.10;;
7080;SDS011;3582;51.506;11.948;2023-11-19T09:53:14;1.80;;;1.70;;
7080;SDS011;3582;51.506;11.948;2023-11-19T09:55:40;1.45;;;1.30;;
7080;SDS011;3582;51.506;11.948;2023-11-19T09:58:07;2.05;;;1.45;;
7080;SDS011;3582;51.506;11.948;2023-11-19T10:00:33;4.93;;;1.40;;
7080;SDS011;3582;51.506;11.948;2023-11-19T10:03:00;1.40;;;1.23;;
7080;SDS011;3582;51.506;11.948;2023-11-19T10:05:26;3.80;;;1.30;;
7080;SDS011;3582;51.506;11.948;2023-11-19T10:07:52;3.50;;;1.93;;
7080;SDS011;3582;51.506;11.948;2023-11-19T10:10:20;2.80;;;1.60;;
7080;SDS011;3582;51.506;11.948;2023-11-19T10:12:46;2.90;;;1.60;;
7080;SDS011;3582;51.506;11.948;2023-11-19T10:15:17;4.70;;;2.10;;
7080;SDS011;3582;51.506;11.948;2023-11-19T10:17:45;2.13;;;1.83;;
7080;SDS011;3582;51.506;11.948;2023-11-19T10:20:11;4.50;;;1.97;;
7080;SDS011;3582;51.506;11.948;2023-11-19T10:22:37;1.90;;;1.57;;
7080;SDS011;3582;51.506;11.948;2023-11-19T10:25:04;2.63;;;2.00;;
7080;SDS011;3582;51.506;11.948;2023-11-19T10:27:30;5.23;;;3.20;;
7080;SDS011;3582;51.506;11.948;2023-11-19T10:29:59;8.73;;;3.83;;
7080;SDS011;3582;51.506;11.948;2023-11-19T10:32:25;5.00;;;2.90;;
7080;SDS011;3582;51.506;11.948;2023-11-19T10:34:51;4.63;;;2.23;;
7080;SDS011;3582;51.506;11.948;2023-11-19T10:37:29;4.43;;;1.87;;
7080;SDS011;3582;51.506;11.948;2023-11-19T10:40:02;6.00;;;2.73;;
7080;SDS011;3582;51.506;11.948;2023-11-19T10:42:30;4.80;;;2.00;;
7080;SDS011;3582;51.506;11.948;2023-11-19T10:44:56;6.90;;;2.60;;
7080;SDS011;3582;51.506;11.948;2023-11-19T10:47:22;4.30;;;2.30;;
7080;SDS011;3582;51.506;11.948;2023-11-19T10:49:48;5.18;;;2.72;;
7080;SDS011;3582;51.506;11.948;2023-11-19T10:52:17;3.17;;;2.35;;
7080;SDS011;3582;51.506;11.948;2023-11-19T10:54:49;3.03;;;2.83;;
7080;SDS011;3582;51.506;11.948;2023-11-19T10:57:21;4.22;;;3.10;;
7080;SDS011;3582;51.506;11.948;2023-11-19T10:59:52;5.93;;;3.70;;
7080;SDS011;3582;51.506;11.948;2023-11-19T11:02:19;4.00;;;2.70;;
7080;SDS011;3582;51.506;11.948;2023-11-19T11:04:47;2.63;;;2.42;;
7080;SDS011;3582;51.506;11.948;2023-11-19T11:07:15;10.07;;;2.73;;
7080;SDS011;3582;51.506;11.948;2023-11-19T11:09:41;5.43;;;2.93;;
7080;SDS011;3582;51.506;11.948;2023-11-19T11:12:08;7.37;;;3.43;;
7080;SDS011;3582;51.506;11.948;2023-11-19T11:14:37;3.83;;;2.90;;
7080;SDS011;3582;51.506;11.948;2023-11-19T11:17:05;7.13;;;3.17;;
7080;SDS011;3582;51.506;11.948;2023-11-19T11:19:32;4.50;;;2.10;;
7080;SDS011;3582;51.506;11.948;2023-11-19T11:21:59;3.13;;;2.67;;
7080;SDS011;3582;51.506;11.948;2023-11-19T11:24:32;4.68;;;2.58;;
7080;SDS011;3582;51.506;11.948;2023-11-19T11:27:17;6.43;;;2.80;;
7080;SDS011;3582;51.506;11.948;2023-11-19T11:30:11;4.95;;;2.97;;
7080;SDS011;3582;51.506;11.948;2023-11-19T11:38:08;9.23;;;3.77;;
7080;SDS011;3582;51.506;11.948;2023-11-19T11:40:34;7.23;;;3.00;;
7080;SDS011;3582;51.506;11.948;2023-11-19T11:43:01;5.70;;;2.97;;
7080;SDS011;3582;51.506;11.948;2023-11-19T11:45:37;7.80;;;3.30;;
7080;SDS011;3582;51.506;11.948;2023-11-19T11:48:40;5.97;;;3.40;;
7080;SDS011;3582;51.506;11.948;2023-11-19T11:50:56;5.80;;;3.13;;
7080;SDS011;3582;51.506;11.948;2023-11-19T11:53:23;7.20;;;4.00;;
7080;SDS011;3582;51.506;11.948;2023-11-19T11:58:19;5.43;;;2.80;;
7080;SDS011;3582;51.506;11.948;2023-11-19T12:00:46;12.20;;;4.20;;
7080;SDS011;3582;51.506;11.948;2023-11-19T12:03:12;8.10;;;3.40;;
7080;SDS011;3582;51.506;11.948;2023-11-19T12:05:38;10.40;;;3.73;;
7080;SDS011;3582;51.506;11.948;2023-11-19T12:08:06;7.73;;;3.47;;
7080;SDS011;3582;51.506;11.948;2023-11-19T12:10:45;8.47;;;3.60;;
7080;SDS011;3582;51.506;11.948;2023-11-19T12:13:12;11.17;;;3.93;;
7080;SDS011;3582;51.506;11.948;2023-11-19T12:18:23;12.40;;;3.73;;
7080;SDS011;3582;51.506;11.948;2023-11-19T12:20:49;9.80;;;3.87;;
7080;SDS011;3582;51.506;11.948;2023-11-19T12:23:15;12.47;;;5.27;;
7080;SDS011;3582;51.506;11.948;2023-11-19T12:25:41;9.03;;;4.00;;
7080;SDS011;3582;51.506;11.948;2023-11-19T12:28:13;9.47;;;4.07;;
7080;SDS011;3582;51.506;11.948;2023-11-19T12:30:39;12.03;;;3.97;;
7080;SDS011;3582;51.506;11.948;2023-11-19T12:33:08;12.67;;;3.87;;
7080;SDS011;3582;51.506;11.948;2023-11-19T12:35:44;8.57;;;4.37;;
7080;SDS011;3582;51.506;11.948;2023-11-19T12:38:22;5.00;;;3.30;;
7080;SDS011;3582;51.506;11.948;2023-11-19T12:41:06;12.00;;;3.97;;
7080;SDS011;3582;51.506;11.948;2023-11-19T12:43:33;6.90;;;3.13;;
7080;SDS011;3582;51.506;11.948;2023-11-19T12:46:01;8.40;;;3.03;;
7080;SDS011;3582;51.506;11.948;2023-11-19T12:48:27;10.93;;;3.40;;
7080;SDS011;3582;51.506;11.948;2023-11-19T12:50:53;8.90;;;4.00;;
7080;SDS011;3582;51.506;11.948;2023-11-19T12:53:21;7.23;;;4.33;;
7080;SDS011;3582;51.506;11.948;2023-11-19T12:55:47;14.53;;;4.30;;
7080;SDS011;3582;51.506;11.948;2023-11-19T12:58:29;7.37;;;3.00;;
7080;SDS011;3582;51.506;11.948;2023-11-19T13:01:02;12.17;;;3.73;;
7080;SDS011;3582;51.506;11.948;2023-11-19T13:03:29;16.17;;;3.70;;
7080;SDS011;3582;51.506;11.948;2023-11-19T13:06:00;8.73;;;4.20;;
7080;SDS011;3582;51.506;11.948;2023-11-19T13:08:27;8.67;;;3.60;;
7080;SDS011;3582;51.506;11.948;2023-11-19T13:10:53;16.97;;;4.10;;
7080;SDS011;3582;51.506;11.948;2023-11-19T13:13:20;12.53;;;3.63;;
7080;SDS011;3582;51.506;11.948;2023-11-19T13:15:46;12.57;;;3.73;;
7080;SDS011;3582;51.506;11.948;2023-11-19T13:18:12;6.67;;;4.20;;
7080;SDS011;3582;51.506;11.948;2023-11-19T13:20:39;13.47;;;4.00;;
7080;SDS011;3582;51.506;11.948;2023-11-19T13:23:05;9.63;;;4.00;;
7080;SDS011;3582;51.506;11.948;2023-11-19T13:25:35;6.53;;;3.00;;
7080;SDS011;3582;51.506;11.948;2023-11-19T13:28:01;15.87;;;3.80;;
7080;SDS011;3582;51.506;11.948;2023-11-19T13:30:27;10.97;;;4.63;;
7080;SDS011;3582;51.506;11.948;2023-11-19T13:32:54;14.23;;;4.30;;
7080;SDS011;3582;51.506;11.948;2023-11-19T13:35:21;8.70;;;3.20;;
7080;SDS011;3582;51.506;11.948;2023-11-19T13:37:47;13.00;;;3.83;;
7080;SDS011;3582;51.506;11.948;2023-11-19T13:40:13;11.27;;;3.93;;
7080;SDS011;3582;51.506;11.948;2023-11-19T13:42:43;13.93;;;4.30;;
7080;SDS011;3582;51.506;11.948;2023-11-19T13:45:09;10.00;;;4.17;;
7080;SDS011;3582;51.506;11.948;2023-11-19T13:47:37;11.70;;;4.43;;
7080;SDS011;3582;51.506;11.948;2023-11-19T13:50:06;12.07;;;4.70;;
7080;SDS011;3582;51.506;11.948;2023-11-19T13:52:32;16.10;;;3.50;;
7080;SDS011;3582;51.506;11.948;2023-11-19T13:54:58;13.47;;;4.80;;
7080;SDS011;3582;51.506;11.948;2023-11-19T13:57:24;12.23;;;3.50;;
7080;SDS011;3582;51.506;11.948;2023-11-19T13:59:50;11.03;;;3.90;;
7080;SDS011;3582;51.506;11.948;2023-11-19T14:02:16;8.90;;;3.27;;
7080;SDS011;3582;51.506;11.948;2023-11-19T14:04:42;10.20;;;3.73;;
7080;SDS011;3582;51.506;11.948;2023-11-19T14:07:08;8.13;;;3.53;;
7080;SDS011;3582;51.506;11.948;2023-11-19T14:09:34;13.23;;;4.50;;
7080;SDS011;3582;51.506;11.948;2023-11-19T14:12:00;12.60;;;3.47;;
7080;SDS011;3582;51.506;11.948;2023-11-19T14:14:26;6.80;;;3.20;;
7080;SDS011;3582;51.506;11.948;2023-11-19T14:16:52;15.00;;;4.27;;
7080;SDS011;3582;51.506;11.948;2023-11-19T14:19:18;12.43;;;4.83;;
7080;SDS011;3582;51.506;11.948;2023-11-19T14:21:43;10.67;;;3.80;;
7080;SDS011;3582;51.506;11.948;2023-11-19T14:24:10;12.50;;;4.20;;
7080;SDS011;3582;51.506;11.948;2023-11-19T14:26:36;17.00;;;4.30;;
7080;SDS011;3582;51.506;11.948;2023-11-19T14:29:02;11.93;;;3.60;;
7080;SDS011;3582;51.506;11.948;2023-11-19T14:31:28;8.03;;;3.33;;
7080;SDS011;3582;51.506;11.948;2023-11-19T14:33:54;7.80;;;3.20;;
7080;SDS011;3582;51.506;11.948;2023-11-19T14:36:20;14.37;;;4.10;;
7080;SDS011;3582;51.506;11.948;2023-11-19T14:38:46;7.77;;;3.40;;
7080;SDS011;3582;51.506;11.948;2023-11-19T14:41:12;9.47;;;3.70;;
7080;SDS011;3582;51.506;11.948;2023-11-19T14:43:39;7.97;;;3.67;;
7080;SDS011;3582;51.506;11.948;2023-11-19T14:46:05;10.97;;;2.90;;
7080;SDS011;3582;51.506;11.948;2023-11-19T14:48:31;11.37;;;5.30;;
7080;SDS011;3582;51.506;11.948;2023-11-19T14:50:57;9.77;;;2.90;;
7080;SDS011;3582;51.506;11.948;2023-11-19T14:53:24;16.57;;;3.50;;
7080;SDS011;3582;51.506;11.948;2023-11-19T14:55:50;13.33;;;5.43;;
7080;SDS011;3582;51.506;11.948;2023-11-19T14:58:16;10.63;;;3.07;;
7080;SDS011;3582;51.506;11.948;2023-11-19T15:00:42;10.23;;;4.70;;
7080;SDS011;3582;51.506;11.948;2023-11-19T15:03:08;6.87;;;3.13;;
7080;SDS011;3582;51.506;11.948;2023-11-19T15:05:34;15.23;;;3.30;;
7080;SDS011;3582;51.506;11.948;2023-11-19T15:08:00;8.23;;;2.83;;
7080;SDS011;3582;51.506;11.948;2023-11-19T15:10:25;10.63;;;3.40;;